Time;durP1;ratioP1;P1;durP2;ratioP2;P2;SDS_P1;SDS_P2;PMS_P1;PMS_P2;Temp;Humidity;BMP_temperature;BMP_pressure;BME280_temperature;BME280_humidity;BME280_pressure;Samples;Min_cycle;Max_cycle;Signal;HPM_P1;HPM_P2
2024/02/08 00:00:07;;;;;;;12.93;2.97;;;;;;;2.41;100.00;100333.25;5044020;28;20248;-74
2024/02/08 00:02:32;;;;;;;19.53;3.23;;;;;;;2.37;100.00;100323.94;5044400;28;20517;-74
2024/02/08 00:04:57;;;;;;;10.93;3.07;;;;;;;1.90;100.00;100261.69;5046298;28;20942;-74
2024/02/08 00:07:23;;;;;;;11.60;2.77;;;;;;;2.21;100.00;100381.09;5045099;28;20700;-74
2024/02/08 00:09:50;;;;;;;17.10;2.73;;;;;;;1.81;100.00;100320.81;5040991;28;20183;-74
2024/02/08 00:12:17;;;;;;;12.43;2.70;;;;;;;2.18;100.00;100413.16;5043426;28;20192;-74
2024/02/08 00:14:42;;;;;;;15.23;3.03;;;;;;;1.51;100.00;100290.38;5044106;28;20473;-74
2024/02/08 00:17:08;;;;;;;11.80;3.30;;;;;;;1.83;100.00;100361.16;5045566;28;20439;-74
2024/02/08 00:19:33;;;;;;;10.93;3.00;;;;;;;1.32;100.00;100283.44;5043503;28;20183;-74
2024/02/08 00:21:59;;;;;;;12.87;2.90;;;;;;;1.69;100.00;100282.41;5044153;28;20186;-74
2024/02/08 00:24:24;;;;;;;9.17;2.40;;;;;;;1.97;100.00;100352.69;5040310;28;20178;-74
2024/02/08 00:26:49;;;;;;;8.60;2.17;;;;;;;1.33;100.00;100262.16;5045081;28;20716;-73
2024/02/08 00:29:15;;;;;;;11.23;2.20;;;;;;;1.80;100.00;100327.94;5045553;28;20321;-74
2024/02/08 00:31:42;;;;;;;12.93;2.57;;;;;;;0.98;100.00;100201.41;5058005;28;20192;-74
2024/02/08 00:34:07;;;;;;;13.87;2.60;;;;;;;1.21;100.00;100268.63;5041943;28;20203;-74
2024/02/08 00:36:33;;;;;;;14.67;3.53;;;;;;;1.20;100.00;100248.50;5041594;28;20448;-74
2024/02/08 00:38:58;;;;;;;12.27;2.63;;;;;;;1.28;100.00;100258.31;5044123;28;20234;-73
2024/02/08 00:41:24;;;;;;;11.40;2.60;;;;;;;1.52;100.00;100302.59;5044109;28;20215;-74
2024/02/08 00:43:52;;;;;;;8.07;2.03;;;;;;;1.91;100.00;100353.31;5042619;28;20183;-74
2024/02/08 00:46:19;;;;;;;13.67;2.43;;;;;;;1.63;100.00;100293.59;5044164;28;20192;-73
2024/02/08 00:48:45;;;;;;;11.73;2.47;;;;;;;1.86;100.00;100321.19;5049954;28;20462;-74
2024/02/08 00:51:10;;;;;;;10.23;2.70;;;;;;;1.57;100.00;100287.94;5046064;28;20480;-73
2024/02/08 00:53:36;;;;;;;12.30;2.23;;;;;;;2.01;100.00;100314.34;5045548;28;20203;-74
2024/02/08 00:56:02;;;;;;;14.50;2.80;;;;;;;2.00;100.00;100310.03;5040678;28;20187;-74
2024/02/08 00:58:28;;;;;;;12.80;2.80;;;;;;;2.08;100.00;100370.09;5039013;28;20275;-74
2024/02/08 01:00:53;;;;;;;20.43;3.00;;;;;;;2.06;100.00;100350.09;5037431;28;21034;-73
2024/02/08 01:03:19;;;;;;;13.03;2.27;;;;;;;0.59;100.00;100148.94;5043243;28;20195;-74
2024/02/08 01:05:51;;;;;;;14.70;2.50;;;;;;;2.12;100.00;100370.63;5037860;28;20183;-74
2024/02/08 01:08:17;;;;;;;11.67;3.40;;;;;;;1.37;100.00;100275.06;5039878;28;20461;-73
2024/02/08 01:10:42;;;;;;;11.00;2.37;;;;;;;2.15;100.00;100363.22;5041966;28;20510;-73
2024/02/08 01:13:07;;;;;;;16.07;3.00;;;;;;;1.50;100.00;100259.63;5042301;28;20290;-73
2024/02/08 01:15:33;;;;;;;10.10;2.47;;;;;;;2.15;100.00;100354.44;5042563;28;20191;-73
2024/02/08 01:18:03;;;;;;;17.33;3.00;;;;;;;1.43;100.00;100238.28;5042754;28;20258;-73
2024/02/08 01:20:29;;;;;;;10.77;2.10;;;;;;;1.38;100.00;100211.47;5036710;28;20434;-73
2024/02/08 01:22:54;;;;;;;15.70;2.97;;;;;;;1.07;100.00;100177.59;5040336;28;20441;-73
2024/02/08 01:25:20;;;;;;;11.97;2.63;;;;;;;1.91;100.00;100305.69;5041485;28;20222;-74
2024/02/08 01:27:46;;;;;;;13.50;3.80;;;;;;;1.94;100.00;100278.06;5039885;28;20208;-73
2024/02/08 01:30:13;;;;;;;14.80;3.33;;;;;;;1.64;100.00;100250.31;5040830;28;20195;-73
2024/02/08 01:32:39;;;;;;;11.30;2.70;;;;;;;2.00;100.00;100315.34;5041808;28;20430;-73
2024/02/08 01:35:06;;;;;;;12.80;2.97;;;;;;;1.68;100.00;100230.50;5041254;28;20837;-74
2024/02/08 01:37:38;;;;;;;12.20;3.20;;;;;;;1.90;100.00;100229.13;5035591;28;20466;-73
2024/02/08 01:40:16;;;;;;;15.53;3.33;;;;;;;2.25;100.00;100300.41;5037991;28;20777;-73
2024/02/08 01:42:46;;;;;;;17.80;3.80;;;;;;;2.24;100.00;100297.94;5040609;28;20432;-73
2024/02/08 01:45:33;;;;;;;13.40;3.10;;;;;;;1.95;100.00;100256.78;5036739;28;20871;-73
2024/02/08 01:48:10;;;;;;;17.43;3.73;;;;;;;2.48;100.00;100332.44;5040128;28;20461;-73
2024/02/08 01:50:57;;;;;;;17.10;3.87;;;;;;;1.93;100.00;100218.25;5038369;28;20452;-73
2024/02/08 01:53:27;;;;;;;11.07;2.80;;;;;;;2.20;100.00;100264.84;5038024;28;20523;-73
2024/02/08 01:55:58;;;;;;;10.60;3.00;;;;;;;2.59;100.00;100317.28;5038709;28;20430;-73
2024/02/08 01:58:27;;;;;;;13.70;3.03;;;;;;;1.73;100.00;100226.38;5037281;28;20513;-73
2024/02/08 02:00:54;;;;;;;10.57;2.90;;;;;;;1.40;100.00;100193.66;5041224;28;20441;-73
2024/02/08 02:03:20;;;;;;;17.33;4.17;;;;;;;1.71;100.00;100230.19;5041709;28;20476;-74
2024/02/08 02:05:49;;;;;;;10.87;2.70;;;;;;;2.17;100.00;100294.25;5040552;28;20447;-73
2024/02/08 02:08:26;;;;;;;11.40;3.40;;;;;;;2.01;100.00;100269.38;5039728;28;20584;-73
2024/02/08 02:11:20;;;;;;;14.20;3.07;;;;;;;1.91;100.00;100266.03;5039696;28;20440;-73
2024/02/08 02:13:48;;;;;;;14.17;2.97;;;;;;;2.21;100.00;100308.84;5038839;28;20614;-74
2024/02/08 02:16:14;;;;;;;8.17;2.43;;;;;;;2.31;100.00;100280.41;5039222;28;20435;-73
2024/02/08 02:18:40;;;;;;;11.77;2.80;;;;;;;2.37;100.00;100290.41;5037789;28;20455;-73
2024/02/08 02:21:06;;;;;;;13.63;2.60;;;;;;;1.87;100.00;100208.28;5035645;28;20462;-73
2024/02/08 02:23:32;;;;;;;11.37;2.90;;;;;;;1.88;100.00;100221.38;5043893;28;20273;-73
2024/02/08 02:25:58;;;;;;;15.43;3.03;;;;;;;2.33;100.00;100275.81;5041078;28;20431;-73
2024/02/08 02:28:24;;;;;;;15.83;3.27;;;;;;;2.49;100.00;100307.66;5041252;28;20555;-74
2024/02/08 02:30:50;;;;;;;17.97;3.47;;;;;;;2.01;100.00;100255.31;5039891;28;20444;-74
2024/02/08 02:33:16;;;;;;;13.43;3.07;;;;;;;2.42;100.00;100303.13;5045897;28;20601;-73
2024/02/08 02:35:52;;;;;;;13.07;2.83;;;;;;;1.89;100.00;100211.63;5044380;28;20438;-73
2024/02/08 02:38:18;;;;;;;12.80;2.93;;;;;;;2.49;100.00;100294.41;5045692;28;20454;-74
2024/02/08 02:40:47;;;;;;;13.40;3.40;;;;;;;1.51;100.00;100150.28;5044835;28;20792;-74
2024/02/08 02:43:15;;;;;;;16.10;3.70;;;;;;;2.26;100.00;100246.50;5045345;28;20423;-73
2024/02/08 02:45:43;;;;;;;14.13;3.20;;;;;;;1.38;100.00;100105.75;5106656;22;20557;-73
2024/02/08 02:48:10;;;;;;;15.00;3.00;;;;;;;0.21;100.00;99874.78;5032144;28;20466;-73
2024/02/08 02:50:43;;;;;;;15.83;2.70;;;;;;;-0.06;100.00;99832.72;5024844;28;20445;-73
2024/02/08 02:53:09;;;;;;;13.30;2.97;;;;;;;0.73;100.00;99949.63;5029617;28;20509;-73
2024/02/08 02:58:32;;;;;;;15.37;3.83;;;;;;;2.75;100.00;100288.22;5089790;27;20335;-70
2024/02/08 03:01:04;;;;;;;15.63;3.80;;;;;;;2.68;100.00;100297.78;5082012;28;20780;-70
2024/02/08 03:03:37;;;;;;;10.20;2.80;;;;;;;2.11;100.00;100236.66;5082692;28;20178;-70
2024/02/08 03:06:03;;;;;;;16.97;3.70;;;;;;;1.94;100.00;100159.91;5086296;28;20425;-70
2024/02/08 03:08:37;;;;;;;14.90;3.60;;;;;;;2.50;100.00;100274.06;5082247;28;20428;-70
2024/02/08 03:11:03;;;;;;;15.60;3.57;;;;;;;2.03;100.00;100166.06;5092353;28;20525;-72
2024/02/08 03:13:29;;;;;;;17.20;3.90;;;;;;;2.80;100.00;100293.81;5082638;28;20453;-72
2024/02/08 03:15:55;;;;;;;13.97;3.40;;;;;;;2.97;100.00;100280.63;5088123;27;20645;-72
2024/02/08 03:18:23;;;;;;;13.83;3.63;;;;;;;2.52;100.00;100197.97;5086207;28;20447;-73
2024/02/08 03:20:50;;;;;;;19.47;3.00;;;;;;;2.34;100.00;100200.69;5094684;28;20225;-73
2024/02/08 03:23:16;;;;;;;15.33;3.67;;;;;;;2.64;100.00;100254.09;5089062;28;20432;-72
2024/02/08 03:25:41;;;;;;;17.23;4.17;;;;;;;2.66;100.00;100274.13;5083390;28;20439;-72
2024/02/08 03:28:08;;;;;;;15.13;4.00;;;;;;;2.48;100.00;100223.06;5093029;28;20213;-72
2024/02/08 03:30:34;;;;;;;10.80;3.70;;;;;;;2.82;100.00;100262.72;5085571;28;20585;-72
2024/02/08 03:33:11;;;;;;;12.20;3.30;;;;;;;2.53;100.00;100233.19;5085028;28;20436;-73
2024/02/08 03:35:38;;;;;;;16.03;3.40;;;;;;;2.85;100.00;100285.41;5096216;28;20438;-72
2024/02/08 03:38:08;;;;;;;14.43;3.23;;;;;;;2.77;100.00;100248.31;5081997;28;20910;-72
2024/02/08 03:40:34;;;;;;;13.73;3.27;;;;;;;2.90;100.00;100283.94;5082961;28;20603;-72
2024/02/08 03:43:00;;;;;;;13.70;3.00;;;;;;;2.67;100.00;100269.66;5090996;28;20431;-72
2024/02/08 03:45:28;;;;;;;13.23;3.43;;;;;;;1.96;100.00;100128.00;5085927;28;20519;-72
2024/02/08 03:48:01;;;;;;;10.50;2.33;;;;;;;2.77;100.00;100272.13;5091804;28;20541;-72
2024/02/08 03:50:33;;;;;;;10.70;2.73;;;;;;;2.18;100.00;100262.34;5083505;28;20456;-72
2024/02/08 03:53:02;;;;;;;13.27;2.77;;;;;;;2.26;100.00;100264.22;5085491;27;20424;-72
2024/02/08 03:55:27;;;;;;;19.10;4.00;;;;;;;1.40;100.00;100102.97;5082105;28;20433;-72
2024/02/08 03:57:56;;;;;;;16.77;3.80;;;;;;;1.86;100.00;100167.81;5084155;28;20448;-72
2024/02/08 04:00:28;;;;;;;14.37;4.10;;;;;;;1.58;100.00;100095.78;5079291;28;20210;-73
2024/02/08 04:02:58;;;;;;;10.67;2.70;;;;;;;2.31;100.00;100222.19;5077987;28;20974;-72
2024/02/08 04:05:58;;;;;;;16.27;3.83;;;;;;;2.68;100.00;100250.94;5085371;28;20425;-73
2024/02/08 04:54:35;;;;;;;14.07;3.87;;;;;;;1.41;100.00;100207.69;5070529;28;20470;-72
2024/02/08 04:57:01;;;;;;;14.13;3.20;;;;;;;1.54;100.00;100200.19;5065160;28;20452;-72
2024/02/08 04:59:26;;;;;;;16.80;3.10;;;;;;;1.53;100.00;100225.78;5070029;28;20219;-72
2024/02/08 05:01:55;;;;;;;12.70;3.60;;;;;;;1.52;100.00;100212.72;5067169;28;20186;-73
2024/02/08 05:04:21;;;;;;;10.23;2.97;;;;;;;1.63;100.00;100232.78;5071769;28;20191;-72
2024/02/08 05:06:47;;;;;;;9.20;3.30;;;;;;;1.54;100.00;100243.31;5070294;28;20500;-72
2024/02/08 05:09:19;;;;;;;12.23;2.90;;;;;;;1.32;100.00;100241.16;5078014;28;20499;-72
2024/02/08 05:11:45;;;;;;;10.40;2.77;;;;;;;1.42;100.00;100241.06;5070195;28;20428;-73
2024/02/08 05:14:11;;;;;;;12.77;4.10;;;;;;;1.52;100.00;100239.16;5070232;28;20455;-72
2024/02/08 05:16:37;;;;;;;11.30;3.20;;;;;;;1.72;100.00;100223.91;5071229;28;20433;-70
2024/02/08 05:19:04;;;;;;;12.57;3.27;;;;;;;1.78;100.00;100223.28;5074140;28;20285;-70
2024/02/08 05:21:31;;;;;;;14.77;3.90;;;;;;;1.34;100.00;100158.09;5069889;28;20433;-70
2024/02/08 05:23:58;;;;;;;12.60;3.50;;;;;;;1.70;100.00;100221.41;5071264;28;20527;-70
2024/02/08 05:26:31;;;;;;;17.43;3.47;;;;;;;1.39;100.00;100191.16;5071703;28;20836;-70
2024/02/08 05:28:58;;;;;;;12.47;3.40;;;;;;;1.43;100.00;100176.66;5078864;28;20452;-70
2024/02/08 05:31:26;;;;;;;15.13;3.63;;;;;;;1.18;100.00;100112.25;5070226;28;20442;-70
2024/02/08 05:33:54;;;;;;;9.97;3.50;;;;;;;1.72;100.00;100187.72;5079911;28;20437;-72
2024/02/08 05:36:20;;;;;;;11.00;3.67;;;;;;;1.77;100.00;100192.56;5080728;28;20432;-73
2024/02/08 05:38:46;;;;;;;9.10;3.33;;;;;;;1.70;100.00;100179.13;5067919;28;20440;-72
2024/02/08 05:41:17;;;;;;;10.60;3.30;;;;;;;1.76;100.00;100178.47;5074569;28;20201;-73
2024/02/08 05:43:45;;;;;;;13.60;3.23;;;;;;;1.57;100.00;100129.34;5083246;28;20495;-72
2024/02/08 05:46:19;;;;;;;13.30;3.63;;;;;;;2.02;100.00;100174.97;5074705;28;20466;-72
2024/02/08 05:48:50;;;;;;;9.57;3.40;;;;;;;2.07;100.00;100183.25;5068042;28;20456;-72
2024/02/08 05:51:20;;;;;;;10.20;3.20;;;;;;;1.34;100.00;100101.78;5071869;28;20428;-73
2024/02/08 05:53:47;;;;;;;15.60;3.53;;;;;;;1.85;100.00;100179.34;5065868;28;20891;-73
2024/02/08 05:56:15;;;;;;;13.53;3.83;;;;;;;1.89;100.00;100186.00;5068477;28;20506;-73
2024/02/08 05:58:44;;;;;;;11.20;4.03;;;;;;;1.94;100.00;100182.84;5059759;28;20448;-72
2024/02/08 06:01:21;;;;;;;12.03;4.00;;;;;;;1.61;100.00;100111.34;5067741;28;20876;-73
2024/02/08 06:03:47;;;;;;;15.73;4.60;;;;;;;2.10;100.00;100172.34;5049439;28;20455;-72
2024/02/08 06:06:17;;;;;;;12.90;3.30;;;;;;;1.88;100.00;100178.22;5065758;28;20947;-73
2024/02/08 06:08:43;;;;;;;13.90;3.90;;;;;;;1.75;100.00;100171.53;5070408;28;20445;-73
2024/02/08 06:11:19;;;;;;;14.00;3.97;;;;;;;1.78;100.00;100158.00;5070637;28;20440;-72
2024/02/08 06:13:58;;;;;;;13.20;3.60;;;;;;;1.34;100.00;100115.00;5067967;28;20451;-74
2024/02/08 06:16:45;;;;;;;12.37;4.10;;;;;;;1.44;100.00;100099.84;5072243;28;20600;-72
2024/02/08 06:19:14;;;;;;;13.33;4.00;;;;;;;1.57;100.00;100102.06;5078066;28;20910;-72
2024/02/08 06:21:43;;;;;;;16.20;4.30;;;;;;;1.19;100.00;100056.66;5078607;28;20441;-72
2024/02/08 06:26:55;;;;;;;11.63;3.40;;;;;;;1.89;100.00;100133.09;5070878;28;20512;-73
2024/02/08 06:29:38;;;;;;;16.53;3.77;;;;;;;1.29;100.00;100028.28;5070767;28;20456;-72
2024/02/08 06:32:23;;;;;;;11.90;3.63;;;;;;;1.08;100.00;99982.97;5068840;28;20441;-72
2024/02/08 06:37:32;;;;;;;10.83;3.33;;;;;;;1.89;100.00;100142.84;5068510;28;20452;-72
2024/02/08 06:40:00;;;;;;;13.50;3.73;;;;;;;1.93;100.00;100150.28;5065741;28;20461;-72
2024/02/08 06:45:25;;;;;;;7.97;3.30;;;;;;;2.00;100.00;100145.22;5073290;28;20434;-73
2024/02/08 07:37:36;;;;;;;11.90;4.77;;;;;;;1.97;100.00;100087.34;5072181;28;20620;-72
2024/02/08 07:40:19;;;;;;;14.97;3.90;;;;;;;1.94;100.00;100040.88;5077444;28;20461;-72
2024/02/08 07:42:48;;;;;;;10.53;3.37;;;;;;;1.35;100.00;99936.97;5070208;28;20473;-72
2024/02/08 07:45:17;;;;;;;12.23;4.03;;;;;;;1.42;100.00;99948.56;5072954;28;20440;-72
2024/02/08 07:47:57;;;;;;;16.67;4.00;;;;;;;2.02;100.00;100048.00;5068298;28;20499;-72
2024/02/08 07:50:24;;;;;;;11.47;3.30;;;;;;;2.00;100.00;100024.38;5070823;28;20199;-72
2024/02/08 07:52:58;;;;;;;15.37;3.70;;;;;;;2.21;100.00;100018.59;5069813;28;20515;-72
2024/02/08 07:55:49;;;;;;;12.57;4.33;;;;;;;2.22;100.00;100028.16;5070450;28;20460;-72
2024/02/08 07:58:17;;;;;;;13.23;3.77;;;;;;;2.15;100.00;100021.06;5071181;28;20820;-72
2024/02/08 08:00:43;;;;;;;13.87;4.30;;;;;;;1.87;100.00;99926.16;5063657;28;20548;-72
2024/02/08 08:03:15;;;;;;;10.27;3.70;;;;;;;1.34;100.00;99830.47;5066832;28;20546;-70
2024/02/08 08:05:44;;;;;;;20.20;3.87;;;;;;;2.51;100.00;100004.84;5067747;28;20218;-70
2024/02/08 08:08:24;;;;;;;9.80;3.70;;;;;;;2.15;100.00;99978.75;5069282;28;20525;-73
2024/02/08 08:11:02;;;;;;;10.27;4.20;;;;;;;1.89;100.00;99926.81;5069427;28;20578;-72
2024/02/08 08:19:08;;;;;;;11.70;4.30;;;;;;;2.50;100.00;99929.91;5070251;28;20460;-72
2024/02/08 08:24:25;;;;;;;14.00;5.00;;;;;;;2.58;100.00;99921.13;5065272;28;20490;-73
2024/02/08 08:27:25;;;;;;;13.00;3.80;;;;;;;1.48;100.00;99719.84;5061958;28;20469;-73
2024/02/08 08:29:52;;;;;;;13.23;4.73;;;;;;;2.67;100.00;99907.69;5059460;28;20542;-73
2024/02/08 08:37:44;;;;;;;10.90;4.50;;;;;;;2.48;100.00;99855.94;5065781;28;20445;-73
2024/02/08 08:43:00;;;;;;;12.83;3.87;;;;;;;1.89;100.00;99762.88;5080262;28;20436;-73
2024/02/08 08:45:38;;;;;;;;;;;;;;;;;;;;;
2024/02/08 08:48:11;;;;;;;13.70;4.27;;;;;;;0.08;100.00;99426.13;5064298;28;20677;-76
2024/02/08 08:50:47;;;;;;;16.50;4.30;;;;;;;1.79;100.00;99719.91;5070471;28;20463;-76
2024/02/08 08:53:29;;;;;;;;;;;;;;;;;;;;;
2024/02/08 08:56:00;;;;;;;14.93;4.77;;;;;;;0.92;100.00;99563.06;5052698;28;20441;-75
2024/02/08 08:58:41;;;;;;;12.10;3.83;;;;;;;-0.12;100.00;99358.91;5054112;28;20459;-77
2024/02/08 09:01:18;;;;;;;15.40;4.27;;;;;;;0.16;100.00;99418.22;5045867;28;20449;-74
2024/02/08 09:03:55;;;;;;;13.03;4.50;;;;;;;3.03;100.00;99850.75;5056268;28;20998;-74
2024/02/08 09:06:25;;;;;;;10.47;4.30;;;;;;;2.94;100.00;99812.91;5056726;28;20468;-74
2024/02/08 09:08:58;;;;;;;14.83;5.30;;;;;;;3.04;100.00;99808.22;5052150;28;21170;-73
2024/02/08 09:11:25;;;;;;;13.30;5.50;;;;;;;3.17;100.00;99808.44;5052684;28;20857;-72
2024/02/08 09:13:54;;;;;;;10.33;5.23;;;;;;;2.73;100.00;99755.25;5053494;28;20433;-72
2024/02/08 09:19:04;;;;;;;16.97;5.47;;;;;;;3.41;100.00;99825.16;5059450;28;20473;-73
2024/02/08 09:21:32;;;;;;;18.23;6.07;;;;;;;3.45;100.00;99834.44;5045660;28;20456;-73
2024/02/08 09:24:03;;;;;;;18.33;5.33;;;;;;;3.44;100.00;99842.56;5054001;28;22447;-74
2024/02/08 09:29:25;;;;;;;11.43;4.37;;;;;;;3.69;100.00;99845.84;5044936;28;20459;-74
2024/02/08 09:31:56;;;;;;;14.50;4.63;;;;;;;3.59;100.00;99824.91;5042893;28;20486;-73
2024/02/08 09:34:40;;;;;;;16.37;5.50;;;;;;;3.68;100.00;99831.78;5053701;28;21026;-74
2024/02/08 09:37:08;;;;;;;19.40;6.40;;;;;;;3.76;100.00;99844.97;5049523;28;20522;-74
2024/02/08 09:42:26;;;;;;;13.03;4.90;;;;;;;3.82;100.00;99844.25;5051839;28;20464;-74
2024/02/08 09:45:24;;;;;;;20.33;6.10;;;;;;;3.97;100.00;99851.41;5052306;28;20453;-73
2024/02/08 09:47:54;;;;;;;13.80;5.00;;;;;;;4.01;100.00;99861.47;5052446;28;20473;-73
2024/02/08 09:50:50;;;;;;;17.60;5.20;;;;;;;3.75;100.00;99827.38;5050365;28;20525;-72
2024/02/08 09:53:29;;;;;;;16.03;4.93;;;;;;;3.90;100.00;99861.91;5048082;28;20443;-72
2024/02/08 09:56:15;;;;;;;14.77;4.17;;;;;;;3.03;100.00;99734.19;5056432;28;20438;-73
2024/02/08 09:58:46;;;;;;;12.80;3.20;;;;;;;3.62;100.00;99824.53;5050096;28;20430;-73
2024/02/08 10:01:30;;;;;;;17.23;4.00;;;;;;;3.28;100.00;99758.69;5050084;28;20437;-73
2024/02/08 10:04:05;;;;;;;11.00;3.60;;;;;;;3.89;100.00;99862.09;5048279;28;20457;-73
2024/02/08 10:07:15;;;;;;;14.23;2.90;;;;;;;3.75;100.00;99808.00;5064983;28;20473;-73
2024/02/08 10:12:18;;;;;;;10.33;2.83;;;;;;;3.42;100.00;99770.34;5054763;28;20439;-73
2024/02/08 10:14:46;;;;;;;11.67;2.53;;;;;;;3.69;100.00;99821.97;5050692;28;20445;-74
2024/02/08 10:17:42;;;;;;;11.10;3.53;;;;;;;4.17;100.00;99900.31;5050966;28;20473;-74
2024/02/08 10:22:57;;;;;;;14.60;3.93;;;;;;;4.26;100.00;99914.34;5051055;28;20527;-75
2024/02/08 10:28:09;;;;;;;12.47;3.50;;;;;;;3.84;100.00;99850.19;5052477;28;20523;-74
2024/02/08 10:30:38;;;;;;;10.90;3.47;;;;;;;4.03;100.00;99879.88;5049834;28;20469;-73
2024/02/08 10:33:14;;;;;;;11.40;2.83;;;;;;;3.91;100.00;99849.50;5045348;28;20450;-73
2024/02/08 10:35:42;;;;;;;15.63;4.27;;;;;;;4.32;100.00;99908.31;5047565;28;20445;-73
2024/02/08 10:38:30;;;;;;;10.90;3.37;;;;;;;4.14;100.00;99918.41;5046716;28;20495;-74
2024/02/08 10:40:58;;;;;;;11.80;3.47;;;;;;;4.11;100.00;99910.81;5048856;28;20437;-73
2024/02/08 10:43:25;;;;;;;16.30;3.50;;;;;;;4.05;100.00;99861.94;5046703;28;20446;-75
2024/02/08 10:46:02;;;;;;;11.93;3.97;;;;;;;4.34;100.00;99900.16;5047193;28;20907;-74
2024/02/08 10:48:31;;;;;;;17.73;3.90;;;;;;;4.54;100.00;99909.22;5045338;28;20473;-74
2024/02/08 10:51:02;;;;;;;13.17;3.40;;;;;;;4.26;100.00;99879.84;5045632;28;20446;-74
2024/02/08 10:53:43;;;;;;;11.00;3.17;;;;;;;4.38;100.00;99883.69;5049856;28;20499;-74
2024/02/08 10:56:17;;;;;;;12.90;2.80;;;;;;;4.75;100.00;99912.00;5053125;28;20466;-73
2024/02/08 11:01:37;;;;;;;16.10;3.27;;;;;;;4.28;100.00;99865.38;5046558;28;20881;-73
2024/02/08 11:04:18;;;;;;;13.53;3.40;;;;;;;4.34;100.00;99873.59;5044275;28;20491;-74
2024/02/08 11:07:06;;;;;;;14.03;3.17;;;;;;;4.73;100.00;99929.94;5038227;28;20496;-72
2024/02/08 11:09:35;;;;;;;11.50;3.10;;;;;;;4.53;100.00;99902.28;5048332;28;20967;-73
2024/02/08 11:12:09;;;;;;;12.80;2.93;;;;;;;4.79;100.00;99922.25;5067300;28;23443;-73
2024/02/08 11:14:42;;;;;;;15.43;3.43;;;;;;;4.43;100.00;99876.00;5049584;28;20436;-72
2024/02/08 11:17:20;;;;;;;16.00;3.20;;;;;;;4.75;100.00;99909.34;5052840;28;20436;-74
2024/02/08 11:19:49;;;;;;;13.13;3.37;;;;;;;4.72;100.00;99916.88;5044057;28;20463;-72
2024/02/08 11:22:34;;;;;;;15.47;3.70;;;;;;;4.68;100.00;99902.28;5042931;28;20447;-73
2024/02/08 11:25:21;;;;;;;13.30;3.43;;;;;;;4.70;100.00;99922.34;5058490;28;21603;-73
2024/02/08 11:27:51;;;;;;;13.93;3.30;;;;;;;4.74;100.00;99922.81;5054501;28;20460;-74
2024/02/08 11:30:32;;;;;;;15.50;3.70;;;;;;;4.69;100.00;99931.34;5055646;28;20457;-74
2024/02/08 11:33:02;;;;;;;12.50;3.33;;;;;;;4.81;100.00;99921.06;5051210;28;20511;-72
2024/02/08 11:35:32;;;;;;;10.70;2.77;;;;;;;4.80;100.00;99932.69;5053112;28;21185;-74
2024/02/08 11:38:16;;;;;;;12.10;3.20;;;;;;;4.74;100.00;99928.97;5053320;28;20518;-73
2024/02/08 11:40:48;;;;;;;13.60;3.47;;;;;;;4.89;100.00;99926.31;5045703;28;20464;-74
2024/02/08 11:43:23;;;;;;;14.20;2.90;;;;;;;4.63;100.00;99891.38;5054646;28;20445;-75
2024/02/08 11:45:54;;;;;;;16.97;3.20;;;;;;;4.81;100.00;99922.91;5053031;28;20444;-75
2024/02/08 11:48:41;;;;;;;20.70;3.23;;;;;;;4.08;100.00;99845.69;5048395;28;20935;-74
2024/02/08 11:51:15;;;;;;;9.57;2.87;;;;;;;4.08;100.00;99821.78;5053586;28;20502;-72
2024/02/08 11:53:44;;;;;;;13.20;3.17;;;;;;;4.61;100.00;99888.09;5043356;28;20838;-73
2024/02/08 11:56:11;;;;;;;13.00;3.57;;;;;;;4.53;100.00;99903.09;5044295;28;20534;-72
2024/02/08 11:58:47;;;;;;;13.53;3.70;;;;;;;3.90;100.00;99765.59;5051762;28;20525;-73
2024/02/08 12:01:16;;;;;;;12.93;3.60;;;;;;;4.65;100.00;99884.06;5053002;28;20434;-73
2024/02/08 12:03:45;;;;;;;14.97;3.13;;;;;;;4.44;100.00;99874.19;5052252;28;20445;-72
2024/02/08 12:06:22;;;;;;;15.73;3.53;;;;;;;4.81;100.00;99883.88;5047460;28;20476;-72
2024/02/08 12:09:02;;;;;;;14.57;2.60;;;;;;;4.80;100.00;99873.41;5053618;28;20822;-72
2024/02/08 12:11:31;;;;;;;12.83;2.60;;;;;;;4.56;100.00;99846.16;5046726;28;20444;-72
2024/02/08 12:14:06;;;;;;;8.63;2.53;;;;;;;4.90;100.00;99869.47;5053006;28;20491;-73
2024/02/08 12:16:32;;;;;;;11.03;3.20;;;;;;;4.42;100.00;99810.63;5050099;28;20444;-72
2024/02/08 12:19:07;;;;;;;9.67;2.23;;;;;;;4.50;100.00;99838.91;5067066;28;20469;-73
2024/02/08 12:21:35;;;;;;;13.70;3.27;;;;;;;4.56;100.00;99851.47;5053218;28;20528;-72
2024/02/08 12:24:01;;;;;;;16.73;3.37;;;;;;;4.83;100.00;99855.31;5046428;28;20434;-72
2024/02/08 12:26:31;;;;;;;12.03;2.80;;;;;;;4.22;100.00;99756.44;5053025;28;20445;-73
2024/02/08 12:29:02;;;;;;;14.33;2.87;;;;;;;4.56;100.00;99805.50;5051865;28;20506;-72
2024/02/08 12:31:32;;;;;;;13.30;3.07;;;;;;;4.75;100.00;99850.09;5057838;28;20958;-72
2024/02/08 12:34:05;;;;;;;11.67;2.33;;;;;;;4.54;100.00;99808.31;5049498;28;20441;-72
2024/02/08 12:36:33;;;;;;;12.47;2.97;;;;;;;4.25;100.00;99767.53;5048769;28;20456;-73
2024/02/08 12:39:01;;;;;;;11.07;2.90;;;;;;;4.25;100.00;99767.53;5050887;28;20458;-72
2024/02/08 12:41:38;;;;;;;12.10;2.77;;;;;;;4.43;100.00;99775.09;5051959;28;20949;-72
2024/02/08 12:44:03;;;;;;;9.57;3.00;;;;;;;4.76;100.00;99836.59;5053730;28;20487;-73
2024/02/08 12:46:31;;;;;;;11.87;3.00;;;;;;;4.63;100.00;99806.38;5053975;28;20473;-73
2024/02/08 12:48:59;;;;;;;10.67;3.27;;;;;;;4.56;100.00;99827.56;5043360;28;20313;-72
2024/02/08 12:51:25;;;;;;;11.57;3.07;;;;;;;4.53;100.00;99838.53;5048374;28;20455;-73
2024/02/08 12:53:57;;;;;;;12.13;2.73;;;;;;;4.69;100.00;99859.63;5062051;28;20434;-72
2024/02/08 12:56:23;;;;;;;12.90;3.03;;;;;;;4.32;100.00;99833.16;5038726;28;20437;-73
2024/02/08 12:59:01;;;;;;;11.57;2.57;;;;;;;4.63;100.00;99859.50;5044522;28;20999;-73
2024/02/08 13:01:44;;;;;;;9.20;3.20;;;;;;;4.78;100.00;99852.38;5053632;28;20365;-73
2024/02/08 13:04:15;;;;;;;10.60;2.40;;;;;;;4.56;100.00;99816.13;5055520;28;20452;-73
2024/02/08 13:06:41;;;;;;;11.57;3.30;;;;;;;4.73;100.00;99852.09;5069484;28;20457;-73
2024/02/08 13:12:17;;;;;;;11.10;2.20;;;;;;;4.73;100.00;99868.84;5050974;28;20435;-72
2024/02/08 13:14:56;;;;;;;10.60;2.40;;;;;;;4.65;100.00;99849.53;5020323;28;20437;-72
2024/02/08 13:17:25;;;;;;;10.57;2.67;;;;;;;4.72;100.00;99877.84;5046829;28;20865;-72
2024/02/08 13:19:55;;;;;;;10.50;2.30;;;;;;;4.19;100.00;99816.00;5042668;28;20457;-73
2024/02/08 13:22:33;;;;;;;9.50;2.90;;;;;;;4.76;100.00;99871.13;5058606;28;20437;-72
2024/02/08 13:24:58;;;;;;;12.53;2.70;;;;;;;3.72;100.00;99712.88;5053348;28;20424;-73
2024/02/08 13:27:28;;;;;;;20.40;3.33;;;;;;;3.93;100.00;99734.19;5054184;28;20476;-72
2024/02/08 13:29:54;;;;;;;9.67;3.00;;;;;;;3.51;100.00;99674.66;5051603;28;20957;-73
2024/02/08 13:32:28;;;;;;;13.93;3.00;;;;;;;4.62;100.00;99845.41;5054609;28;20436;-73
2024/02/08 13:34:55;;;;;;;16.40;3.70;;;;;;;4.82;100.00;99840.34;5056654;28;20433;-72
2024/02/08 13:37:23;;;;;;;10.13;3.00;;;;;;;4.66;100.00;99843.22;5057288;28;20451;-73
2024/02/08 13:39:50;;;;;;;13.20;3.50;;;;;;;4.66;100.00;99828.09;5055879;28;20468;-73
2024/02/08 13:42:19;;;;;;;13.03;2.97;;;;;;;4.11;100.00;99711.78;5049589;28;20430;-73
2024/02/08 13:44:45;;;;;;;9.83;3.40;;;;;;;4.51;100.00;99793.59;5050646;28;20421;-73
2024/02/08 13:47:13;;;;;;;14.50;4.20;;;;;;;4.60;100.00;99799.63;5050722;28;20854;-72
2024/02/08 13:49:39;;;;;;;16.90;3.50;;;;;;;4.33;100.00;99733.91;5051993;28;20238;-73
2024/02/08 13:52:06;;;;;;;13.20;3.73;;;;;;;4.53;100.00;99749.06;5050460;28;20485;-72
2024/02/08 13:54:36;;;;;;;16.83;3.37;;;;;;;4.52;100.00;99762.56;5054590;28;20182;-72
2024/02/08 13:57:14;;;;;;;11.87;3.00;;;;;;;4.57;100.00;99760.16;5055453;28;20433;-72
2024/02/08 13:59:45;;;;;;;13.93;2.70;;;;;;;3.73;100.00;99641.09;5049727;28;20481;-72
2024/02/08 14:02:15;;;;;;;9.83;2.83;;;;;;;4.47;100.00;99764.94;5054311;28;20441;-72
2024/02/08 14:04:55;;;;;;;12.60;2.70;;;;;;;4.50;100.00;99765.38;5053456;28;20438;-73
2024/02/08 14:07:25;;;;;;;11.50;3.00;;;;;;;4.02;100.00;99719.84;5047406;28;20477;-72